Shinkai Maru — JJ4012 — position and weather

sailwx.info

Track history (hours):
 
Tides and Currents Weather Stations Pressure Air Temp Water Temp Dewpoint Dewpoint Depression Visibility Wind Speed Wind Dir Waves Ship Positions

Shinkai Maru

Last reported at 2017-Nov-25 10:17 UTC. Time now 2017-Nov-25 11:46 UTC.
Position N 33°59' E 134°60'.

Length 76 m; draft 4.1 m.

Type: Cargo ship. MMSI: 431301346.

Date/timePositionNaut miles runAvg speedWind from/ knotsBaromVisibWave heightAir tempDewpointWater temp
2017-Nov-25 10:17N 33°59' E 134°60'312.2
2017-Nov-25 10:01N 34°02' E 134°59'912.3
2017-Nov-25 09:15N 34°12' E 134°58'312.9
2017-Nov-25 09:00N 34°15' E 134°58'612.4
2017-Nov-25 08:30N 34°21' E 134°59'612.4
2017-Nov-25 08:00N 34°27' E 135°01'612.2
2017-Nov-25 07:30N 34°33' E 135°02'5 9.7
2017-Nov-25 07:00N 34°37' E 134°59'611.4
2017-Nov-25 06:30N 34°38' E 134°53'611.3
2017-Nov-25 06:00N 34°42' E 134°48'6 0.3
2017-Nov-24 05:05N 34°37' E 134°54'412.3
2017-Nov-24 04:48N 34°38' E 134°58'411.6
2017-Nov-24 04:27N 34°37' E 135°03'510.5
2017-Nov-24 04:00N 34°37' E 135°08'4 5.5
2017-Nov-24 03:20N 34°39' E 135°12'0 0.0
2017-Nov-24 02:56N 34°39' E 135°12'0 0.1
2017-Nov-24 02:21N 34°39' E 135°12'2 7.1
2017-Nov-24 02:00N 34°37' E 135°10'612.2
2017-Nov-24 01:30N 34°32' E 135°07'1713.0
2017-Nov-24 00:12N 34°16' E 134°59'312.3
2017-Nov-24 00:00N 34°14' E 134°60'612.1
2017-Nov-23 23:30N 34°08' E 135°01'  
2017-Nov-19 23:22N 34°33' E 135°26'5 8.9
2017-Nov-19 22:48N 34°33' E 135°20'411.9
2017-Nov-19 22:29N 34°34' E 135°16'612.5
2017-Nov-19 22:00N 34°34' E 135°08'611.9
2017-Nov-19 21:30N 34°36' E 135°02'510.0
2017-Nov-19 21:00N 34°37' E 134°56'711.1
2017-Nov-19 20:25N 34°40' E 134°49'2 0.2
2017-Nov-19 12:50N 34°41' E 134°47'712.4
2017-Nov-19 12:18N 34°37' E 134°53'413.0
2017-Nov-19 12:00N 34°38' E 134°58'713.1
2017-Nov-19 11:30N 34°35' E 135°05'612.8
2017-Nov-19 11:00N 34°29' E 135°04'1512.0
2017-Nov-19 09:46N 34°14' E 134°60'311.5
2017-Nov-19 09:30N 34°11' E 135°00'229 8.6
2017-Nov-18 06:57N 35°02' E 139°31'512.0
2017-Nov-18 06:30N 35°05' E 139°36'612.0
2017-Nov-18 06:00N 35°08' E 139°42'611.4
2017-Nov-18 05:30N 35°13' E 139°46'511.0
2017-Nov-18 05:00N 35°18' E 139°44'611.1
2017-Nov-18 04:30N 35°23' E 139°42'510.6
2017-Nov-18 04:00N 35°27' E 139°47'510.4
2017-Nov-18 03:30N 35°30' E 139°52'2 0.1
2017-Nov-17 10:28N 35°29' E 139°52'611.4
2017-Nov-17 09:58N 35°25' E 139°47'511.3
2017-Nov-17 09:30N 35°20' E 139°44'510.4
2017-Nov-17 09:00N 35°15' E 139°47'510.7
2017-Nov-17 08:30N 35°10' E 139°47'611.5
2017-Nov-17 08:00N 35°05' E 139°42'612.4
2017-Nov-17 07:30N 35°01' E 139°36'228 9.2
2017-Nov-16 06:39N 34°29' E 135°01'211.8
2017-Nov-16 06:27N 34°31' E 135°02'511.0
2017-Nov-16 06:00N 34°36' E 135°03'  
Track history (hours):
 
Tides and Currents Weather Stations Pressure Air Temp Water Temp Dewpoint Dewpoint Depression Visibility Wind Speed Wind Dir Waves Ship Positions

Shinkai Maru

Last reported at 2017-Nov-25 10:17 UTC. Time now 2017-Nov-25 11:46 UTC.
Position N 33°59' E 134°60'.

Length 76 m; draft 4.1 m.

Type: Cargo ship. MMSI: 431301346.

Date/timePositionNaut miles runAvg speedWind from/ knotsBaromVisibWave heightAir tempDewpointWater temp
2017-Nov-25 10:17N 33°59' E 134°60'312.2
2017-Nov-25 10:01N 34°02' E 134°59'912.3
2017-Nov-25 09:15N 34°12' E 134°58'312.9
2017-Nov-25 09:00N 34°15' E 134°58'612.4
2017-Nov-25 08:30N 34°21' E 134°59'612.4
2017-Nov-25 08:00N 34°27' E 135°01'612.2
2017-Nov-25 07:30N 34°33' E 135°02'5 9.7
2017-Nov-25 07:00N 34°37' E 134°59'611.4
2017-Nov-25 06:30N 34°38' E 134°53'611.3
2017-Nov-25 06:00N 34°42' E 134°48'6 0.3
2017-Nov-24 05:05N 34°37' E 134°54'412.3
2017-Nov-24 04:48N 34°38' E 134°58'411.6
2017-Nov-24 04:27N 34°37' E 135°03'510.5
2017-Nov-24 04:00N 34°37' E 135°08'4 5.5
2017-Nov-24 03:20N 34°39' E 135°12'0 0.0
2017-Nov-24 02:56N 34°39' E 135°12'0 0.1
2017-Nov-24 02:21N 34°39' E 135°12'2 7.1
2017-Nov-24 02:00N 34°37' E 135°10'612.2
2017-Nov-24 01:30N 34°32' E 135°07'1713.0
2017-Nov-24 00:12N 34°16' E 134°59'312.3
2017-Nov-24 00:00N 34°14' E 134°60'612.1
2017-Nov-23 23:30N 34°08' E 135°01'  
2017-Nov-19 23:22N 34°33' E 135°26'5 8.9
2017-Nov-19 22:48N 34°33' E 135°20'411.9
2017-Nov-19 22:29N 34°34' E 135°16'612.5
2017-Nov-19 22:00N 34°34' E 135°08'611.9
2017-Nov-19 21:30N 34°36' E 135°02'510.0
2017-Nov-19 21:00N 34°37' E 134°56'711.1
2017-Nov-19 20:25N 34°40' E 134°49'2 0.2
2017-Nov-19 12:50N 34°41' E 134°47'712.4
2017-Nov-19 12:18N 34°37' E 134°53'413.0
2017-Nov-19 12:00N 34°38' E 134°58'713.1
2017-Nov-19 11:30N 34°35' E 135°05'612.8
2017-Nov-19 11:00N 34°29' E 135°04'1512.0
2017-Nov-19 09:46N 34°14' E 134°60'311.5
2017-Nov-19 09:30N 34°11' E 135°00'229 8.6
2017-Nov-18 06:57N 35°02' E 139°31'512.0
2017-Nov-18 06:30N 35°05' E 139°36'612.0
2017-Nov-18 06:00N 35°08' E 139°42'611.4
2017-Nov-18 05:30N 35°13' E 139°46'511.0
2017-Nov-18 05:00N 35°18' E 139°44'611.1
2017-Nov-18 04:30N 35°23' E 139°42'510.6
2017-Nov-18 04:00N 35°27' E 139°47'510.4
2017-Nov-18 03:30N 35°30' E 139°52'2 0.1
2017-Nov-17 10:28N 35°29' E 139°52'611.4
2017-Nov-17 09:58N 35°25' E 139°47'511.3
2017-Nov-17 09:30N 35°20' E 139°44'510.4
2017-Nov-17 09:00N 35°15' E 139°47'510.7
2017-Nov-17 08:30N 35°10' E 139°47'611.5
2017-Nov-17 08:00N 35°05' E 139°42'612.4
2017-Nov-17 07:30N 35°01' E 139°36'228 9.2
2017-Nov-16 06:39N 34°29' E 135°01'211.8
2017-Nov-16 06:27N 34°31' E 135°02'511.0
2017-Nov-16 06:00N 34°36' E 135°03'  

Dump ship's entire track history